PROFILE

 METAR AND TAF INFORMATION
ADDS - METARS form results

(1515 UTC 22 January 2019)
http://aviationweather.gov/metar/data/
 
MMMY 221443Z 28007KT 7SM BKN100 BKN200 13/// A2983 RMK SLP/// 5//// 9// 8/078 HZ
TAF MMMY 221105Z 2212/2318 00000KT P6SM BKN013 TX24/2221Z TN09/2212Z TEMPO 2212/2216 4SM HZ BKN008 FM221800 20010KT P6SM SCT030 SCT250 FM230600 14005KT P6SM SCT030 FM231700 35018KT P6SM SCT030 BKN250 

 AIRPORT MAP

 RUNWAY INFORMATION
Runway 11 Runway length 9843 ft Runway width 148 ft
Runway elevation 1277 ft Runway displaced threshold 0 ft Runway heading 121
Runway 29 Runway length 9843 ft Runway width 148 ft
Runway elevation 1234 ft Runway displaced threshold 0 ft Runway heading 301
Runway 16 Runway length 5909 ft Runway width 98 ft
Runway elevation 1271 ft Runway displaced threshold 0 ft Runway heading 165
Runway 34 Runway length 5909 ft Runway width 98 ft
Runway elevation 1254 ft Runway displaced threshold 0 ft Runway heading 345

 AIRPORT FREQUENCIES
Type APP Name MONTERREY Frequency 119.75 MHZ
Type ATIS Name ATIS Frequency 127.7 MHZ
Type GND Name GND Frequency 121.9 MHZ
Type TWR Name MONTERREY Frequency 118.1 MHZ

 AIRPORT NEAR NAVIGATION AIDS
Type VOR-DME Name Monterrey Frequency 114700 KHZ